sensor_id;sensor_type;location;lat;lon;timestamp;pressure;altitude;pressure_sealevel;temperature;humidity
38530;BME280;24301;54.332;48.386;2022-08-19T00:01:44;99928.53;;;15.12;49.53
38530;BME280;24301;54.332;48.386;2022-08-19T00:04:12;99928.56;;;15.10;49.89
38530;BME280;24301;54.332;48.386;2022-08-19T00:06:40;99931.28;;;15.07;49.97
38530;BME280;24301;54.332;48.386;2022-08-19T00:09:09;99941.06;;;15.02;50.12
38530;BME280;24301;54.332;48.386;2022-08-19T00:11:35;99924.38;;;14.98;49.93
38530;BME280;24301;54.332;48.386;2022-08-19T00:14:04;99937.63;;;14.97;49.94
38530;BME280;24301;54.332;48.386;2022-08-19T00:16:30;99946.47;;;14.96;49.50
38530;BME280;24301;54.332;48.386;2022-08-19T00:18:59;99962.44;;;14.89;49.87
38530;BME280;24301;54.332;48.386;2022-08-19T00:21:26;99943.97;;;14.86;49.90
38530;BME280;24301;54.332;48.386;2022-08-19T00:23:55;99939.59;;;14.84;49.84
38530;BME280;24301;54.332;48.386;2022-08-19T00:26:27;99948.44;;;14.84;49.57
38530;BME280;24301;54.332;48.386;2022-08-19T00:28:53;99959.13;;;14.78;49.59
38530;BME280;24301;54.332;48.386;2022-08-19T00:31:19;99948.50;;;14.81;49.56
38530;BME280;24301;54.332;48.386;2022-08-19T00:33:46;99956.44;;;14.79;49.75
38530;BME280;24301;54.332;48.386;2022-08-19T00:36:13;99959.06;;;14.81;49.64
38530;BME280;24301;54.332;48.386;2022-08-19T00:38:39;99972.31;;;14.79;49.46
38530;BME280;24301;54.332;48.386;2022-08-19T00:41:12;99973.25;;;14.75;49.63
38530;BME280;24301;54.332;48.386;2022-08-19T00:44:01;99959.13;;;14.76;50.02
38530;BME280;24301;54.332;48.386;2022-08-19T00:46:27;99951.25;;;14.72;49.61
38530;BME280;24301;54.332;48.386;2022-08-19T00:49:22;99957.47;;;14.68;49.70
38530;BME280;24301;54.332;48.386;2022-08-19T00:51:54;99961.06;;;14.63;49.92
38530;BME280;24301;54.332;48.386;2022-08-19T00:54:21;99958.38;;;14.65;49.81
38530;BME280;24301;54.332;48.386;2022-08-19T00:56:48;99979.59;;;14.63;49.80
38530;BME280;24301;54.332;48.386;2022-08-19T00:59:16;99963.72;;;14.62;49.48
38530;BME280;24301;54.332;48.386;2022-08-19T01:01:44;99961.19;;;14.56;49.56
38530;BME280;24301;54.332;48.386;2022-08-19T01:04:11;99982.38;;;14.54;49.86
38530;BME280;24301;54.332;48.386;2022-08-19T01:06:39;99968.34;;;14.49;49.95
38530;BME280;24301;54.332;48.386;2022-08-19T01:09:07;99970.97;;;14.49;50.02
38530;BME280;24301;54.332;48.386;2022-08-19T01:11:38;99981.56;;;14.50;49.75
38530;BME280;24301;54.332;48.386;2022-08-19T01:14:06;99985.94;;;14.51;49.85
38530;BME280;24301;54.332;48.386;2022-08-19T01:16:34;99972.72;;;14.51;49.48
38530;BME280;24301;54.332;48.386;2022-08-19T01:19:01;99977.16;;;14.48;49.72
38530;BME280;24301;54.332;48.386;2022-08-19T01:21:40;99996.53;;;14.50;49.70
38530;BME280;24301;54.332;48.386;2022-08-19T01:24:07;99976.31;;;14.47;49.64
38530;BME280;24301;54.332;48.386;2022-08-19T01:26:39;99970.97;;;14.49;49.77
38530;BME280;24301;54.332;48.386;2022-08-19T01:29:07;99967.47;;;14.47;49.53
38530;BME280;24301;54.332;48.386;2022-08-19T01:31:34;100020.38;;;14.48;49.60
38530;BME280;24301;54.332;48.386;2022-08-19T01:34:12;99997.44;;;14.49;49.44
38530;BME280;24301;54.332;48.386;2022-08-19T01:36:43;100008.00;;;14.50;49.56
38530;BME280;24301;54.332;48.386;2022-08-19T01:39:21;99990.34;;;14.52;49.30
38530;BME280;24301;54.332;48.386;2022-08-19T01:41:48;99976.25;;;14.50;49.49
38530;BME280;24301;54.332;48.386;2022-08-19T01:44:14;99989.44;;;14.52;49.32
38530;BME280;24301;54.332;48.386;2022-08-19T01:46:42;99999.84;;;14.64;49.25
38530;BME280;24301;54.332;48.386;2022-08-19T01:49:09;99992.34;;;14.96;48.44
38530;BME280;24301;54.332;48.386;2022-08-19T01:51:36;99994.41;;;15.30;47.56
38530;BME280;24301;54.332;48.386;2022-08-19T01:54:03;100001.81;;;15.60;47.34
38530;BME280;24301;54.332;48.386;2022-08-19T01:56:29;99975.66;;;15.88;46.27
38530;BME280;24301;54.332;48.386;2022-08-19T01:59:03;99985.56;;;16.22;45.48
38530;BME280;24301;54.332;48.386;2022-08-19T02:01:30;99994.22;;;16.29;45.26
38530;BME280;24301;54.332;48.386;2022-08-19T02:03:58;100004.41;;;16.49;44.90
38530;BME280;24301;54.332;48.386;2022-08-19T02:06:26;99978.06;;;16.78;44.16
38530;BME280;24301;54.332;48.386;2022-08-19T02:08:53;99999.81;;;16.94;43.23
38530;BME280;24301;54.332;48.386;2022-08-19T02:11:23;99973.53;;;17.19;42.64
38530;BME280;24301;54.332;48.386;2022-08-19T02:13:52;99990.91;;;17.64;42.06
38530;BME280;24301;54.332;48.386;2022-08-19T02:16:19;99977.19;;;17.81;41.34
38530;BME280;24301;54.332;48.386;2022-08-19T02:18:46;99992.56;;;18.00;40.71
38530;BME280;24301;54.332;48.386;2022-08-19T02:21:15;99995.03;;;18.08;40.29
38530;BME280;24301;54.332;48.386;2022-08-19T02:23:42;99978.31;;;18.34;39.38
38530;BME280;24301;54.332;48.386;2022-08-19T02:26:08;99969.56;;;18.59;38.89
38530;BME280;24301;54.332;48.386;2022-08-19T02:28:34;99988.19;;;18.86;38.82
38530;BME280;24301;54.332;48.386;2022-08-19T02:31:00;99996.69;;;18.98;38.44
38530;BME280;24301;54.332;48.386;2022-08-19T02:33:28;99990.97;;;19.37;38.16
38530;BME280;24301;54.332;48.386;2022-08-19T02:35:54;99995.47;;;19.60;37.41
38530;BME280;24301;54.332;48.386;2022-08-19T02:38:20;100010.16;;;19.72;36.72
38530;BME280;24301;54.332;48.386;2022-08-19T02:40:57;100011.78;;;20.26;35.90
38530;BME280;24301;54.332;48.386;2022-08-19T02:43:24;100007.88;;;20.79;35.38
38530;BME280;24301;54.332;48.386;2022-08-19T02:45:52;100008.84;;;21.00;34.37
38530;BME280;24301;54.332;48.386;2022-08-19T02:48:19;100026.03;;;21.15;34.25
38530;BME280;24301;54.332;48.386;2022-08-19T02:50:46;100005.50;;;21.38;33.79
38530;BME280;24301;54.332;48.386;2022-08-19T02:53:13;100024.59;;;21.49;32.87
38530;BME280;24301;54.332;48.386;2022-08-19T02:55:49;100032.22;;;21.79;32.38
38530;BME280;24301;54.332;48.386;2022-08-19T02:58:15;100034.31;;;22.13;32.19
38530;BME280;24301;54.332;48.386;2022-08-19T03:00:44;100048.69;;;22.50;30.97
38530;BME280;24301;54.332;48.386;2022-08-19T03:03:10;100044.97;;;22.72;30.64
38530;BME280;24301;54.332;48.386;2022-08-19T03:05:36;100062.34;;;22.63;30.93
38530;BME280;24301;54.332;48.386;2022-08-19T03:08:02;100043.28;;;22.88;30.64
38530;BME280;24301;54.332;48.386;2022-08-19T03:10:31;100065.13;;;23.52;30.11
38530;BME280;24301;54.332;48.386;2022-08-19T03:12:57;100047.63;;;23.63;29.16
38530;BME280;24301;54.332;48.386;2022-08-19T03:15:23;100064.16;;;24.06;28.75
38530;BME280;24301;54.332;48.386;2022-08-19T03:17:49;100069.78;;;24.02;28.17
38530;BME280;24301;54.332;48.386;2022-08-19T03:20:15;100062.50;;;23.86;28.39
38530;BME280;24301;54.332;48.386;2022-08-19T03:22:41;100062.72;;;23.99;28.01
38530;BME280;24301;54.332;48.386;2022-08-19T03:25:10;100067.38;;;24.13;28.12
38530;BME280;24301;54.332;48.386;2022-08-19T03:27:37;100068.97;;;24.33;28.00
38530;BME280;24301;54.332;48.386;2022-08-19T03:30:03;100076.03;;;24.84;27.50
38530;BME280;24301;54.332;48.386;2022-08-19T03:32:29;100071.28;;;24.89;26.97
38530;BME280;24301;54.332;48.386;2022-08-19T03:34:55;100064.53;;;25.29;26.88
38530;BME280;24301;54.332;48.386;2022-08-19T03:37:21;100069.84;;;25.61;26.62
38530;BME280;24301;54.332;48.386;2022-08-19T03:39:47;100078.53;;;25.66;26.31
38530;BME280;24301;54.332;48.386;2022-08-19T03:42:13;100074.50;;;25.73;26.06
38530;BME280;24301;54.332;48.386;2022-08-19T03:44:39;100081.06;;;25.98;26.16
38530;BME280;24301;54.332;48.386;2022-08-19T03:47:07;100070.47;;;26.53;25.70
38530;BME280;24301;54.332;48.386;2022-08-19T03:49:33;100082.44;;;27.05;24.56
38530;BME280;24301;54.332;48.386;2022-08-19T03:52:01;100096.00;;;27.31;24.10
38530;BME280;24301;54.332;48.386;2022-08-19T03:54:28;100076.00;;;26.93;24.56
38530;BME280;24301;54.332;48.386;2022-08-19T03:56:55;100077.31;;;27.01;24.75
38530;BME280;24301;54.332;48.386;2022-08-19T03:59:33;100084.66;;;27.39;24.14
38530;BME280;24301;54.332;48.386;2022-08-19T04:02:05;100103.69;;;27.50;23.82
38530;BME280;24301;54.332;48.386;2022-08-19T04:04:35;100083.47;;;27.30;24.20
38530;BME280;24301;54.332;48.386;2022-08-19T04:07:02;100070.84;;;27.31;24.37
38530;BME280;24301;54.332;48.386;2022-08-19T04:09:28;100080.13;;;27.67;23.84
38530;BME280;24301;54.332;48.386;2022-08-19T04:11:56;100081.44;;;28.13;23.31
38530;BME280;24301;54.332;48.386;2022-08-19T04:14:27;100058.72;;;27.90;23.57
38530;BME280;24301;54.332;48.386;2022-08-19T04:16:54;100072.06;;;28.19;23.00
38530;BME280;24301;54.332;48.386;2022-08-19T04:19:20;100083.88;;;28.55;22.32
38530;BME280;24301;54.332;48.386;2022-08-19T04:21:49;100094.84;;;28.78;22.19
38530;BME280;24301;54.332;48.386;2022-08-19T04:24:15;100103.28;;;28.86;22.63
38530;BME280;24301;54.332;48.386;2022-08-19T04:26:41;100087.75;;;28.64;22.36
38530;BME280;24301;54.332;48.386;2022-08-19T04:29:11;100090.81;;;28.96;22.02
38530;BME280;24301;54.332;48.386;2022-08-19T04:31:38;100102.25;;;29.00;21.54
38530;BME280;24301;54.332;48.386;2022-08-19T04:34:10;100106.19;;;29.20;21.79
38530;BME280;24301;54.332;48.386;2022-08-19T04:36:38;100118.31;;;29.63;21.64
38530;BME280;24301;54.332;48.386;2022-08-19T04:39:08;100105.50;;;30.13;21.30
38530;BME280;24301;54.332;48.386;2022-08-19T04:41:34;100112.84;;;29.52;21.33
38530;BME280;24301;54.332;48.386;2022-08-19T04:44:18;100118.41;;;29.13;21.70
38530;BME280;24301;54.332;48.386;2022-08-19T04:46:45;100120.78;;;28.93;21.88
38530;BME280;24301;54.332;48.386;2022-08-19T04:49:14;100121.25;;;28.61;22.15
38530;BME280;24301;54.332;48.386;2022-08-19T04:51:45;100104.72;;;29.28;21.96
38530;BME280;24301;54.332;48.386;2022-08-19T04:54:12;100114.47;;;30.02;21.11
38530;BME280;24301;54.332;48.386;2022-08-19T04:56:39;100119.78;;;28.31;22.36
38530;BME280;24301;54.332;48.386;2022-08-19T04:59:05;100132.25;;;29.21;21.88
38530;BME280;24301;54.332;48.386;2022-08-19T05:01:33;100114.25;;;30.28;21.32
38530;BME280;24301;54.332;48.386;2022-08-19T05:04:00;100122.16;;;30.76;20.39
38530;BME280;24301;54.332;48.386;2022-08-19T05:06:26;100121.41;;;30.51;20.06
38530;BME280;24301;54.332;48.386;2022-08-19T05:08:54;100112.53;;;30.27;20.62
38530;BME280;24301;54.332;48.386;2022-08-19T05:11:23;100128.47;;;29.84;21.08
38530;BME280;24301;54.332;48.386;2022-08-19T05:13:50;100143.19;;;30.16;20.90
38530;BME280;24301;54.332;48.386;2022-08-19T05:16:18;100139.25;;;30.88;20.38
38530;BME280;24301;54.332;48.386;2022-08-19T05:18:45;100150.97;;;30.89;20.04
38530;BME280;24301;54.332;48.386;2022-08-19T05:21:31;100155.25;;;31.25;19.79
38530;BME280;24301;54.332;48.386;2022-08-19T05:24:16;100138.53;;;30.98;20.06
38530;BME280;24301;54.332;48.386;2022-08-19T05:26:45;100126.78;;;31.74;20.15
38530;BME280;24301;54.332;48.386;2022-08-19T05:29:14;100146.03;;;32.03;19.09
38530;BME280;24301;54.332;48.386;2022-08-19T05:31:41;100142.78;;;32.81;18.54
38530;BME280;24301;54.332;48.386;2022-08-19T05:34:07;100147.94;;;32.75;18.94
38530;BME280;24301;54.332;48.386;2022-08-19T05:36:41;100157.81;;;32.35;19.13
38530;BME280;24301;54.332;48.386;2022-08-19T05:39:14;100153.34;;;32.65;18.53
38530;BME280;24301;54.332;48.386;2022-08-19T05:41:54;100151.06;;;33.11;18.48
38530;BME280;24301;54.332;48.386;2022-08-19T05:44:24;100163.13;;;33.38;18.92
38530;BME280;24301;54.332;48.386;2022-08-19T05:46:50;100165.19;;;33.56;18.06
38530;BME280;24301;54.332;48.386;2022-08-19T05:49:21;100155.81;;;33.29;18.71
38530;BME280;24301;54.332;48.386;2022-08-19T05:51:49;100173.06;;;32.88;19.12
38530;BME280;24301;54.332;48.386;2022-08-19T05:54:15;100187.91;;;33.35;18.75
38530;BME280;24301;54.332;48.386;2022-08-19T05:56:43;100169.16;;;33.71;18.57
38530;BME280;24301;54.332;48.386;2022-08-19T05:59:10;100181.09;;;33.60;18.41
38530;BME280;24301;54.332;48.386;2022-08-19T06:01:38;100189.25;;;34.09;18.17
38530;BME280;24301;54.332;48.386;2022-08-19T06:04:05;100181.00;;;34.49;17.60
38530;BME280;24301;54.332;48.386;2022-08-19T06:06:33;100191.34;;;34.73;17.45
38530;BME280;24301;54.332;48.386;2022-08-19T06:09:01;100197.13;;;34.98;17.53
38530;BME280;24301;54.332;48.386;2022-08-19T06:11:37;100189.81;;;35.27;17.20
38530;BME280;24301;54.332;48.386;2022-08-19T06:14:11;100197.38;;;35.33;17.08
38530;BME280;24301;54.332;48.386;2022-08-19T06:16:39;100213.56;;;35.62;16.98
38530;BME280;24301;54.332;48.386;2022-08-19T06:19:10;100201.81;;;34.78;17.81
38530;BME280;24301;54.332;48.386;2022-08-19T06:21:38;100221.22;;;34.27;17.44
38530;BME280;24301;54.332;48.386;2022-08-19T06:24:08;100214.91;;;33.97;18.09
38530;BME280;24301;54.332;48.386;2022-08-19T06:26:36;100208.19;;;33.81;18.54
38530;BME280;24301;54.332;48.386;2022-08-19T06:29:05;100208.75;;;33.56;18.63
38530;BME280;24301;54.332;48.386;2022-08-19T06:31:32;100215.84;;;32.55;19.79
38530;BME280;24301;54.332;48.386;2022-08-19T06:34:00;100218.06;;;32.40;19.70
38530;BME280;24301;54.332;48.386;2022-08-19T06:36:34;100215.00;;;33.27;19.13
38530;BME280;24301;54.332;48.386;2022-08-19T06:39:02;100210.19;;;33.70;18.67
38530;BME280;24301;54.332;48.386;2022-08-19T06:41:29;100207.00;;;33.84;18.53
38530;BME280;24301;54.332;48.386;2022-08-19T06:43:57;100236.66;;;34.56;17.60
38530;BME280;24301;54.332;48.386;2022-08-19T06:46:23;100220.63;;;34.81;17.79
38530;BME280;24301;54.332;48.386;2022-08-19T06:48:49;100228.53;;;35.58;17.72
38530;BME280;24301;54.332;48.386;2022-08-19T06:51:17;100226.63;;;35.95;17.46
38530;BME280;24301;54.332;48.386;2022-08-19T06:53:50;100242.84;;;36.06;16.87
38530;BME280;24301;54.332;48.386;2022-08-19T06:56:19;100254.66;;;35.97;16.96
38530;BME280;24301;54.332;48.386;2022-08-19T06:58:47;100243.75;;;36.42;16.66
38530;BME280;24301;54.332;48.386;2022-08-19T07:01:17;100235.34;;;35.44;17.04
38530;BME280;24301;54.332;48.386;2022-08-19T07:03:43;100262.19;;;34.45;17.87
38530;BME280;24301;54.332;48.386;2022-08-19T07:06:12;100247.19;;;34.21;18.04
38530;BME280;24301;54.332;48.386;2022-08-19T07:08:40;100239.78;;;34.61;18.15
38530;BME280;24301;54.332;48.386;2022-08-19T07:11:07;100255.88;;;34.92;17.42
38530;BME280;24301;54.332;48.386;2022-08-19T07:13:34;100255.28;;;34.61;18.06
38530;BME280;24301;54.332;48.386;2022-08-19T07:16:04;100266.38;;;34.20;18.33
38530;BME280;24301;54.332;48.386;2022-08-19T07:18:34;100247.16;;;34.51;18.04
38530;BME280;24301;54.332;48.386;2022-08-19T07:23:30;100246.59;;;33.08;18.88
38530;BME280;24301;54.332;48.386;2022-08-19T07:25:56;100260.69;;;33.33;18.83
38530;BME280;24301;54.332;48.386;2022-08-19T07:28:22;100278.25;;;33.50;18.81
38530;BME280;24301;54.332;48.386;2022-08-19T07:30:48;100261.78;;;33.51;18.78
38530;BME280;24301;54.332;48.386;2022-08-19T07:33:16;100272.81;;;33.60;18.91
38530;BME280;24301;54.332;48.386;2022-08-19T07:35:43;100303.81;;;32.11;19.86
38530;BME280;24301;54.332;48.386;2022-08-19T07:38:09;100266.22;;;31.95;20.42
38530;BME280;24301;54.332;48.386;2022-08-19T07:40:35;100278.88;;;32.39;19.83
38530;BME280;24301;54.332;48.386;2022-08-19T07:43:02;100304.59;;;32.23;19.75
38530;BME280;24301;54.332;48.386;2022-08-19T07:45:34;100315.22;;;31.16;21.02
38530;BME280;24301;54.332;48.386;2022-08-19T07:48:00;100300.31;;;31.21;21.12
38530;BME280;24301;54.332;48.386;2022-08-19T07:50:26;100323.75;;;31.45;20.52
38530;BME280;24301;54.332;48.386;2022-08-19T07:52:52;100295.81;;;31.43;20.83
38530;BME280;24301;54.332;48.386;2022-08-19T07:55:24;100275.50;;;31.15;21.15
38530;BME280;24301;54.332;48.386;2022-08-19T07:57:50;100341.88;;;31.22;20.88
38530;BME280;24301;54.332;48.386;2022-08-19T08:00:18;100296.44;;;31.01;21.54
38530;BME280;24301;54.332;48.386;2022-08-19T08:02:43;100278.34;;;31.02;21.44
38530;BME280;24301;54.332;48.386;2022-08-19T08:05:10;100298.75;;;31.74;21.08
38530;BME280;24301;54.332;48.386;2022-08-19T08:07:55;100295.31;;;31.61;21.46
38530;BME280;24301;54.332;48.386;2022-08-19T08:10:39;100352.03;;;30.73;21.43
38530;BME280;24301;54.332;48.386;2022-08-19T08:13:05;100286.38;;;29.60;23.15
38530;BME280;24301;54.332;48.386;2022-08-19T08:15:35;100292.84;;;28.43;24.45
38530;BME280;24301;54.332;48.386;2022-08-19T08:18:02;100319.59;;;26.47;26.53
38530;BME280;24301;54.332;48.386;2022-08-19T08:20:28;100304.19;;;25.72;27.64
38530;BME280;24301;54.332;48.386;2022-08-19T08:22:54;100314.03;;;24.90;28.95
38530;BME280;24301;54.332;48.386;2022-08-19T08:25:39;100336.09;;;24.44;29.71
38530;BME280;24301;54.332;48.386;2022-08-19T08:28:05;100320.25;;;24.02;30.39
38530;BME280;24301;54.332;48.386;2022-08-19T08:30:57;100325.47;;;23.86;31.08
38530;BME280;24301;54.332;48.386;2022-08-19T08:33:25;100305.75;;;23.87;31.08
38530;BME280;24301;54.332;48.386;2022-08-19T08:35:52;100359.38;;;23.89;31.25
38530;BME280;24301;54.332;48.386;2022-08-19T08:38:18;100309.16;;;23.54;31.39
38530;BME280;24301;54.332;48.386;2022-08-19T08:40:47;100336.09;;;23.32;31.41
38530;BME280;24301;54.332;48.386;2022-08-19T08:43:30;100291.59;;;23.28;31.66
38530;BME280;24301;54.332;48.386;2022-08-19T08:46:23;100337.47;;;23.01;31.67
38530;BME280;24301;54.332;48.386;2022-08-19T08:48:58;100321.84;;;23.10;31.92
38530;BME280;24301;54.332;48.386;2022-08-19T08:51:47;100386.25;;;22.88;32.20
38530;BME280;24301;54.332;48.386;2022-08-19T08:54:20;100320.78;;;22.73;32.71
38530;BME280;24301;54.332;48.386;2022-08-19T08:56:47;100372.50;;;22.96;32.33
38530;BME280;24301;54.332;48.386;2022-08-19T08:59:33;100345.59;;;22.99;32.21
38530;BME280;24301;54.332;48.386;2022-08-19T09:02:00;100336.91;;;23.13;32.65
38530;BME280;24301;54.332;48.386;2022-08-19T09:04:27;100315.09;;;23.02;32.24
38530;BME280;24301;54.332;48.386;2022-08-19T09:09:39;100347.00;;;22.87;33.94
38530;BME280;24301;54.332;48.386;2022-08-19T09:15:05;100351.94;;;22.96;32.27
38530;BME280;24301;54.332;48.386;2022-08-19T09:17:32;100332.09;;;23.01;32.22
38530;BME280;24301;54.332;48.386;2022-08-19T09:20:06;100343.56;;;23.04;32.24
38530;BME280;24301;54.332;48.386;2022-08-19T09:22:39;100367.34;;;23.12;31.44
38530;BME280;24301;54.332;48.386;2022-08-19T09:25:08;100342.28;;;23.13;32.13
38530;BME280;24301;54.332;48.386;2022-08-19T09:27:36;100329.13;;;23.28;32.06
38530;BME280;24301;54.332;48.386;2022-08-19T09:30:06;100381.66;;;23.11;31.96
38530;BME280;24301;54.332;48.386;2022-08-19T09:32:33;100325.03;;;23.19;32.47
38530;BME280;24301;54.332;48.386;2022-08-19T09:34:59;100380.66;;;23.34;33.13
38530;BME280;24301;54.332;48.386;2022-08-19T09:37:26;100346.75;;;23.33;32.77
38530;BME280;24301;54.332;48.386;2022-08-19T09:39:52;100340.00;;;23.44;32.79
38530;BME280;24301;54.332;48.386;2022-08-19T09:42:18;100388.06;;;23.48;33.14
38530;BME280;24301;54.332;48.386;2022-08-19T09:44:44;100375.59;;;23.28;31.55
38530;BME280;24301;54.332;48.386;2022-08-19T09:47:11;100353.84;;;23.14;32.06
38530;BME280;24301;54.332;48.386;2022-08-19T09:49:39;100383.16;;;23.18;32.15
38530;BME280;24301;54.332;48.386;2022-08-19T09:52:07;100363.84;;;23.10;32.51
38530;BME280;24301;54.332;48.386;2022-08-19T09:54:34;100373.84;;;23.06;32.55
38530;BME280;24301;54.332;48.386;2022-08-19T09:57:00;100330.25;;;23.22;31.67
38530;BME280;24301;54.332;48.386;2022-08-19T09:59:27;100366.59;;;23.29;31.90
38530;BME280;24301;54.332;48.386;2022-08-19T10:01:54;100359.22;;;23.14;31.90
38530;BME280;24301;54.332;48.386;2022-08-19T10:04:20;100369.63;;;23.01;32.37
38530;BME280;24301;54.332;48.386;2022-08-19T10:07:24;100363.13;;;23.06;32.34
38530;BME280;24301;54.332;48.386;2022-08-19T10:09:50;100366.25;;;23.16;32.22
38530;BME280;24301;54.332;48.386;2022-08-19T10:12:16;100371.41;;;23.21;31.94
38530;BME280;24301;54.332;48.386;2022-08-19T10:14:42;100358.22;;;23.16;32.21
38530;BME280;24301;54.332;48.386;2022-08-19T10:17:08;100344.81;;;23.16;31.89
38530;BME280;24301;54.332;48.386;2022-08-19T10:19:34;100360.34;;;23.29;31.99
38530;BME280;24301;54.332;48.386;2022-08-19T10:22:07;100344.38;;;23.27;32.47
38530;BME280;24301;54.332;48.386;2022-08-19T10:24:34;100364.78;;;23.30;32.34
38530;BME280;24301;54.332;48.386;2022-08-19T10:27:01;100362.84;;;23.33;31.41
38530;BME280;24301;54.332;48.386;2022-08-19T10:29:30;100382.06;;;23.43;31.18
38530;BME280;24301;54.332;48.386;2022-08-19T10:31:58;100402.91;;;23.36;31.39
38530;BME280;24301;54.332;48.386;2022-08-19T10:34:27;100363.03;;;23.48;31.46
38530;BME280;24301;54.332;48.386;2022-08-19T10:36:54;100358.88;;;23.61;31.57
38530;BME280;24301;54.332;48.386;2022-08-19T10:39:20;100377.44;;;23.66;31.80
38530;BME280;24301;54.332;48.386;2022-08-19T10:41:46;100362.28;;;23.65;32.09
38530;BME280;24301;54.332;48.386;2022-08-19T10:44:12;100337.84;;;23.52;31.22
38530;BME280;24301;54.332;48.386;2022-08-19T10:46:41;100362.84;;;23.52;30.63
38530;BME280;24301;54.332;48.386;2022-08-19T10:49:08;100380.16;;;23.45;30.41
38530;BME280;24301;54.332;48.386;2022-08-19T10:51:35;100359.56;;;23.46;30.70
38530;BME280;24301;54.332;48.386;2022-08-19T10:54:20;100350.03;;;23.59;31.25
38530;BME280;24301;54.332;48.386;2022-08-19T10:56:46;100348.41;;;23.74;31.23
38530;BME280;24301;54.332;48.386;2022-08-19T10:59:25;100346.78;;;23.89;31.09
38530;BME280;24301;54.332;48.386;2022-08-19T11:01:51;100363.84;;;23.88;31.30
38530;BME280;24301;54.332;48.386;2022-08-19T11:04:19;100391.13;;;23.79;30.41
38530;BME280;24301;54.332;48.386;2022-08-19T11:06:46;100356.63;;;23.71;29.44
38530;BME280;24301;54.332;48.386;2022-08-19T11:09:20;100356.19;;;23.61;29.19
38530;BME280;24301;54.332;48.386;2022-08-19T11:11:46;100363.22;;;23.64;29.86
38530;BME280;24301;54.332;48.386;2022-08-19T11:14:16;100364.88;;;23.66;28.61
38530;BME280;24301;54.332;48.386;2022-08-19T11:16:43;100351.81;;;23.78;28.87
38530;BME280;24301;54.332;48.386;2022-08-19T11:19:17;100357.69;;;23.86;28.23
38530;BME280;24301;54.332;48.386;2022-08-19T11:21:47;100371.16;;;23.85;27.82
38530;BME280;24301;54.332;48.386;2022-08-19T11:24:16;100371.31;;;23.81;28.09
38530;BME280;24301;54.332;48.386;2022-08-19T11:26:43;100369.22;;;23.88;27.84
38530;BME280;24301;54.332;48.386;2022-08-19T11:29:11;100368.06;;;23.75;27.77
38530;BME280;24301;54.332;48.386;2022-08-19T11:31:45;100353.19;;;23.67;27.74
38530;BME280;24301;54.332;48.386;2022-08-19T11:34:16;100355.66;;;23.72;27.80
38530;BME280;24301;54.332;48.386;2022-08-19T11:36:44;100362.47;;;23.79;27.37
38530;BME280;24301;54.332;48.386;2022-08-19T11:39:12;100377.13;;;23.72;27.56
38530;BME280;24301;54.332;48.386;2022-08-19T11:41:39;100365.41;;;23.75;27.98
38530;BME280;24301;54.332;48.386;2022-08-19T11:44:05;100355.66;;;23.72;26.70
38530;BME280;24301;54.332;48.386;2022-08-19T11:46:35;100378.72;;;23.76;27.39
38530;BME280;24301;54.332;48.386;2022-08-19T11:49:05;100394.59;;;23.81;26.23
38530;BME280;24301;54.332;48.386;2022-08-19T11:51:35;100365.69;;;23.88;27.06
38530;BME280;24301;54.332;48.386;2022-08-19T11:54:01;100383.22;;;23.95;26.51
38530;BME280;24301;54.332;48.386;2022-08-19T11:56:29;100365.53;;;23.91;26.53
38530;BME280;24301;54.332;48.386;2022-08-19T11:58:55;100376.97;;;23.94;26.43
38530;BME280;24301;54.332;48.386;2022-08-19T12:01:23;100385.25;;;23.90;26.91
38530;BME280;24301;54.332;48.386;2022-08-19T12:03:51;100362.25;;;23.84;27.36
38530;BME280;24301;54.332;48.386;2022-08-19T12:06:23;100358.25;;;23.93;27.16
38530;BME280;24301;54.332;48.386;2022-08-19T12:08:51;100379.44;;;23.99;27.25
38530;BME280;24301;54.332;48.386;2022-08-19T12:11:17;100356.69;;;23.89;27.19
38530;BME280;24301;54.332;48.386;2022-08-19T12:13:43;100368.41;;;23.86;27.28
38530;BME280;24301;54.332;48.386;2022-08-19T12:16:25;100389.44;;;23.95;27.41
38530;BME280;24301;54.332;48.386;2022-08-19T12:18:52;100360.84;;;23.94;26.70
38530;BME280;24301;54.332;48.386;2022-08-19T12:21:22;100362.84;;;23.91;26.88
38530;BME280;24301;54.332;48.386;2022-08-19T12:23:52;100378.94;;;23.91;26.84
38530;BME280;24301;54.332;48.386;2022-08-19T12:26:18;100366.47;;;23.90;27.30
38530;BME280;24301;54.332;48.386;2022-08-19T12:28:44;100364.56;;;23.92;27.34
38530;BME280;24301;54.332;48.386;2022-08-19T12:31:10;100409.63;;;23.85;26.59
38530;BME280;24301;54.332;48.386;2022-08-19T12:33:40;100387.41;;;23.81;26.28
38530;BME280;24301;54.332;48.386;2022-08-19T12:36:08;100364.66;;;23.71;26.46
38530;BME280;24301;54.332;48.386;2022-08-19T12:38:35;100355.94;;;23.85;26.54
38530;BME280;24301;54.332;48.386;2022-08-19T12:41:01;100364.41;;;23.95;26.76
38530;BME280;24301;54.332;48.386;2022-08-19T12:43:33;100361.59;;;23.98;26.34
38530;BME280;24301;54.332;48.386;2022-08-19T12:46:01;100362.91;;;23.89;26.43
38530;BME280;24301;54.332;48.386;2022-08-19T12:48:27;100356.38;;;23.95;26.55
38530;BME280;24301;54.332;48.386;2022-08-19T12:50:53;100383.63;;;23.86;25.78
38530;BME280;24301;54.332;48.386;2022-08-19T12:53:19;100365.78;;;23.85;26.04
38530;BME280;24301;54.332;48.386;2022-08-19T12:55:45;100344.63;;;23.78;25.76
38530;BME280;24301;54.332;48.386;2022-08-19T12:58:11;100350.00;;;23.78;25.53
38530;BME280;24301;54.332;48.386;2022-08-19T13:00:38;100354.56;;;23.76;25.92